Flight Track Log - Related Links

Times and Time Zones

All times are in EDT time to prevent confusion due to time zone crossing. See the USC250 flight status page for this flight to view local times or setup timezone preferences in your user account.

Time Position Orientation Groundspeed Altitude Reporting Facility
EDT Latitude Longitude Course Direction KTS MPH feet Rate Location/Type
Fri 06:03:16 AM 39.8667 -75.1667 113° Southeast 105 121 2,100  Level Philadelphia TRACON
Fri 06:04:16 AM 39.8667 -75.1333 90° East 118 136 3,100 1,000 Climbing Philadelphia TRACON
Fri 06:05:10 AM 39.8333 -75.1333 180° South 117 135 4,000 474 Climbing Philadelphia TRACON
Fri 06:06:10 AM 39.8000 -75.1167 159° South 159 183 4,000 50 Level Philadelphia TRACON
Fri 06:07:10 AM 39.7667 -75.1667 229° Southwest 161 185 4,100 50 Climbing Philadelphia TRACON
Fri 06:08:10 AM 39.7167 -75.2000 207° Southwest 166 191 4,100  Level Philadelphia TRACON
Fri 06:09:16 AM 39.6833 -75.2333 218° Southwest 166 191 4,100 -48 Level Philadelphia TRACON
Fri 06:10:16 AM 39.6500 -75.2833 229° Southwest 164 189 4,000 -50 Descending Philadelphia TRACON
Fri 06:11:16 AM 39.6333 -75.3500 252° West 177 204 4,000  Level Philadelphia TRACON
Fri 06:12:16 AM 39.6167 -75.4000 247° West 169 194 4,000  Level Philadelphia TRACON
Fri 06:13:16 AM 39.6000 -75.4500 247° West 172 198 4,000  Level Philadelphia TRACON
Fri 06:14:17 AM 39.5833 -75.5167 252° West 171 197 4,000 50 Level Philadelphia TRACON
Fri 06:15:17 AM 39.5667 -75.5667 219° Southwest 165 190 4,100  Climbing Philadelphia TRACON
Fri 06:16:16 AM 39.5333 -75.6167 229° Southwest 166 191 4,000 -79 Descending Philadelphia TRACON
Fri 06:17:49 AM 39.5167 -75.7000 255° West 166 191 3,900  Descending Potomac TRACON
Fri 06:19:00 AM 39.4973 -75.7559 270° West  Level Estimated
Fri 06:19:49 AM 39.4833 -75.8167 270° West 164 189 4,000  Level Potomac TRACON
Fri 06:20:43 AM 39.4667 -75.8667 247° West 163 188 4,000  Level Potomac TRACON
Fri 06:21:49 AM 39.4333 -75.9167 229° Southwest 161 185 4,000  Level Potomac TRACON
Fri 06:22:43 AM 39.4167 -75.9667 247° West 160 184 4,000  Level Potomac TRACON
Fri 06:23:37 AM 39.4167 -76.0167 270° West 164 189 4,000  Level Potomac TRACON
Fri 06:24:43 AM 39.4167 -76.0833 270° West 162 186 4,000  Level Potomac TRACON
Fri 06:25:43 AM 39.4000 -76.1333 247° West 163 188 4,000  Level Potomac TRACON
Fri 06:26:43 AM 39.4000 -76.2000 270° West 160 184 4,000  Level Potomac TRACON
Fri 06:27:37 AM 39.3833 -76.2500 247° West 159 183 4,000  Level Potomac TRACON
Fri 06:28:37 AM 39.3833 -76.3000 270° West 162 186 4,000  Level Potomac TRACON
Fri 06:29:31 AM 39.3833 -76.3500 270° West 161 185 4,000  Level Potomac TRACON
Fri 06:30:25 AM 39.3667 -76.4000 247° West 159 183 4,000  Level Potomac TRACON
Fri 06:31:25 AM 39.3667 -76.4667 270° West 158 182 4,000  Level Potomac TRACON
Fri 06:32:19 AM 39.3667 -76.5167 270° West 159 183 4,000  Level Potomac TRACON
Fri 06:33:13 AM 39.3500 -76.5667 247° West 160 184 4,000  Level Potomac TRACON
Fri 06:34:13 AM 39.3500 -76.6167 270° West 163 188 4,000  Level Potomac TRACON
Fri 06:35:07 AM 39.3333 -76.6667 247° West 159 183 4,000  Level Potomac TRACON
Fri 06:36:07 AM 39.3333 -76.7167 270° West 156 180 4,000  Level Potomac TRACON
Fri 06:37:07 AM 39.3333 -76.7833 270° West 157 181 4,000  Level Potomac TRACON
Fri 06:38:07 AM 39.3167 -76.8333 247° West 150 173 4,000 -100 Level Potomac TRACON
Fri 06:39:07 AM 39.3000 -76.8833 247° West 159 183 3,800 -400 Descending Potomac TRACON
Fri 06:40:07 AM 39.2500 -76.9000 194° South 165 190 3,200 -550 Descending Potomac TRACON
Fri 06:41:07 AM 39.2167 -76.9167 201° Southwest 153 176 2,700 -579 Descending Potomac TRACON
Fri 06:42:01 AM 39.1833 -76.8833 142° Southeast 174 200 2,100 -526 Descending Potomac TRACON
Fri 06:43:01 AM 39.1833 -76.8333 90° East 165 190 1,700 -400 Descending Potomac TRACON

Login

Don't have an account? Register now (free) for customized features, flight alerts, and more!